sensor_id;sensor_type;location;lat;lon;timestamp;temperature;humidity
68274;SHT30;55104;47.356;19.448;2024-03-17T00:00:27;8.08;98.63
68274;SHT30;55104;47.356;19.448;2024-03-17T00:03:29;8.11;98.76
68274;SHT30;55104;47.356;19.448;2024-03-17T00:06:31;8.15;98.68
68274;SHT30;55104;47.356;19.448;2024-03-17T00:09:32;8.12;99.03
68274;SHT30;55104;47.356;19.448;2024-03-17T00:12:34;8.24;98.96
68274;SHT30;55104;47.356;19.448;2024-03-17T00:15:35;8.22;98.83
68274;SHT30;55104;47.356;19.448;2024-03-17T00:18:37;8.26;99.02
68274;SHT30;55104;47.356;19.448;2024-03-17T00:21:38;8.29;98.97
68274;SHT30;55104;47.356;19.448;2024-03-17T00:24:42;8.37;98.88
68274;SHT30;55104;47.356;19.448;2024-03-17T00:27:45;8.35;98.81
68274;SHT30;55104;47.356;19.448;2024-03-17T00:30:48;8.42;99.12
68274;SHT30;55104;47.356;19.448;2024-03-17T00:33:53;8.46;99.58
68274;SHT30;55104;47.356;19.448;2024-03-17T00:36:54;8.46;99.15
68274;SHT30;55104;47.356;19.448;2024-03-17T00:39:55;8.43;99.15
68274;SHT30;55104;47.356;19.448;2024-03-17T00:42:57;8.47;99.52
68274;SHT30;55104;47.356;19.448;2024-03-17T00:45:58;8.54;99.76
68274;SHT30;55104;47.356;19.448;2024-03-17T00:49:00;8.50;99.50
68274;SHT30;55104;47.356;19.448;2024-03-17T00:52:01;8.47;99.31
68274;SHT30;55104;47.356;19.448;2024-03-17T00:55:03;8.46;99.30
68274;SHT30;55104;47.356;19.448;2024-03-17T00:58:04;8.42;99.20
68274;SHT30;55104;47.356;19.448;2024-03-17T01:01:05;8.43;99.35
68274;SHT30;55104;47.356;19.448;2024-03-17T01:04:06;8.37;99.43
68274;SHT30;55104;47.356;19.448;2024-03-17T01:07:08;8.30;99.35
68274;SHT30;55104;47.356;19.448;2024-03-17T01:10:09;8.28;99.36
68274;SHT30;55104;47.356;19.448;2024-03-17T01:13:11;8.24;99.33
68274;SHT30;55104;47.356;19.448;2024-03-17T01:16:13;8.15;99.57
68274;SHT30;55104;47.356;19.448;2024-03-17T01:19:14;8.25;99.38
68274;SHT30;55104;47.356;19.448;2024-03-17T01:22:16;8.21;99.45
68274;SHT30;55104;47.356;19.448;2024-03-17T01:25:17;8.15;99.36
68274;SHT30;55104;47.356;19.448;2024-03-17T01:28:19;8.24;99.06
68274;SHT30;55104;47.356;19.448;2024-03-17T01:31:20;8.25;98.94
68274;SHT30;55104;47.356;19.448;2024-03-17T01:34:21;8.29;98.47
68274;SHT30;55104;47.356;19.448;2024-03-17T01:37:23;8.37;97.88
68274;SHT30;55104;47.356;19.448;2024-03-17T01:40:25;8.54;96.73
68274;SHT30;55104;47.356;19.448;2024-03-17T01:43:26;8.88;95.03
68274;SHT30;55104;47.356;19.448;2024-03-17T01:46:27;9.18;93.64
68274;SHT30;55104;47.356;19.448;2024-03-17T01:49:29;9.33;92.63
68274;SHT30;55104;47.356;19.448;2024-03-17T01:52:31;9.43;92.14
68274;SHT30;55104;47.356;19.448;2024-03-17T01:55:33;9.56;91.61
68274;SHT30;55104;47.356;19.448;2024-03-17T01:58:36;9.50;91.61
68274;SHT30;55104;47.356;19.448;2024-03-17T02:01:37;9.50;91.49
68274;SHT30;55104;47.356;19.448;2024-03-17T02:04:39;9.46;91.33
68274;SHT30;55104;47.356;19.448;2024-03-17T02:07:40;9.39;91.46
68274;SHT30;55104;47.356;19.448;2024-03-17T02:10:42;9.40;91.46
68274;SHT30;55104;47.356;19.448;2024-03-17T02:13:43;9.36;91.47
68274;SHT30;55104;47.356;19.448;2024-03-17T02:16:44;9.35;91.52
68274;SHT30;55104;47.356;19.448;2024-03-17T02:19:46;9.39;91.14
68274;SHT30;55104;47.356;19.448;2024-03-17T02:22:47;9.44;90.92
68274;SHT30;55104;47.356;19.448;2024-03-17T02:25:49;9.49;90.70
68274;SHT30;55104;47.356;19.448;2024-03-17T02:28:50;9.46;90.55
68274;SHT30;55104;47.356;19.448;2024-03-17T02:31:52;9.53;90.47
68274;SHT30;55104;47.356;19.448;2024-03-17T02:34:53;9.46;90.52
68274;SHT30;55104;47.356;19.448;2024-03-17T02:37:55;9.49;90.42
68274;SHT30;55104;47.356;19.448;2024-03-17T02:40:57;9.44;90.45
68274;SHT30;55104;47.356;19.448;2024-03-17T02:43:58;9.44;90.23
68274;SHT30;55104;47.356;19.448;2024-03-17T02:47:00;9.47;90.23
68274;SHT30;55104;47.356;19.448;2024-03-17T02:50:01;9.49;90.26
68274;SHT30;55104;47.356;19.448;2024-03-17T02:53:02;9.63;89.73
68274;SHT30;55104;47.356;19.448;2024-03-17T02:56:04;9.71;89.57
68274;SHT30;55104;47.356;19.448;2024-03-17T02:59:05;9.78;89.22
68274;SHT30;55104;47.356;19.448;2024-03-17T03:02:07;9.95;88.78
68274;SHT30;55104;47.356;19.448;2024-03-17T03:05:09;9.95;88.69
68274;SHT30;55104;47.356;19.448;2024-03-17T03:08:10;9.95;88.72
68274;SHT30;55104;47.356;19.448;2024-03-17T03:11:11;9.88;88.95
68274;SHT30;55104;47.356;19.448;2024-03-17T03:14:13;9.76;89.39
68274;SHT30;55104;47.356;19.448;2024-03-17T03:17:14;9.74;89.35
68274;SHT30;55104;47.356;19.448;2024-03-17T03:20:16;9.64;89.58
68274;SHT30;55104;47.356;19.448;2024-03-17T03:23:17;9.56;90.00
68274;SHT30;55104;47.356;19.448;2024-03-17T03:26:18;9.47;90.43
68274;SHT30;55104;47.356;19.448;2024-03-17T03:29:20;9.46;90.49
68274;SHT30;55104;47.356;19.448;2024-03-17T03:32:21;9.32;90.82
68274;SHT30;55104;47.356;19.448;2024-03-17T03:35:22;9.25;91.18
68274;SHT30;55104;47.356;19.448;2024-03-17T03:38:24;9.28;91.09
68274;SHT30;55104;47.356;19.448;2024-03-17T03:41:26;9.19;91.40
68274;SHT30;55104;47.356;19.448;2024-03-17T03:44:28;9.07;91.76
68274;SHT30;55104;47.356;19.448;2024-03-17T03:47:29;9.01;92.00
68274;SHT30;55104;47.356;19.448;2024-03-17T03:50:31;9.01;91.97
68274;SHT30;55104;47.356;19.448;2024-03-17T03:53:33;8.97;92.14
68274;SHT30;55104;47.356;19.448;2024-03-17T03:56:35;8.94;92.20
68274;SHT30;55104;47.356;19.448;2024-03-17T03:59:37;8.95;92.11
68274;SHT30;55104;47.356;19.448;2024-03-17T04:02:39;8.88;92.37
68274;SHT30;55104;47.356;19.448;2024-03-17T04:05:40;8.77;92.56
68274;SHT30;55104;47.356;19.448;2024-03-17T04:08:42;8.63;93.03
68274;SHT30;55104;47.356;19.448;2024-03-17T04:11:43;8.57;93.05
68274;SHT30;55104;47.356;19.448;2024-03-17T04:14:45;8.49;93.29
68274;SHT30;55104;47.356;19.448;2024-03-17T04:17:47;8.52;93.41
68274;SHT30;55104;47.356;19.448;2024-03-17T04:20:48;8.56;93.14
68274;SHT30;55104;47.356;19.448;2024-03-17T04:23:49;8.57;92.57
68274;SHT30;55104;47.356;19.448;2024-03-17T04:26:51;8.63;91.67
68274;SHT30;55104;47.356;19.448;2024-03-17T04:29:53;8.63;90.87
68274;SHT30;55104;47.356;19.448;2024-03-17T04:32:55;8.70;89.73
68274;SHT30;55104;47.356;19.448;2024-03-17T04:35:56;8.77;89.20
68274;SHT30;55104;47.356;19.448;2024-03-17T04:38:58;8.77;88.81
68274;SHT30;55104;47.356;19.448;2024-03-17T04:41:59;8.81;88.53
68274;SHT30;55104;47.356;19.448;2024-03-17T04:45:00;8.73;88.66
68274;SHT30;55104;47.356;19.448;2024-03-17T04:48:02;8.61;88.89
68274;SHT30;55104;47.356;19.448;2024-03-17T04:51:03;8.63;88.81
68274;SHT30;55104;47.356;19.448;2024-03-17T04:54:06;8.63;88.86
68274;SHT30;55104;47.356;19.448;2024-03-17T04:57:08;8.57;89.05
68274;SHT30;55104;47.356;19.448;2024-03-17T05:00:10;8.49;89.01
68274;SHT30;55104;47.356;19.448;2024-03-17T05:03:13;8.50;88.83
68274;SHT30;55104;47.356;19.448;2024-03-17T05:06:14;8.50;88.87
68274;SHT30;55104;47.356;19.448;2024-03-17T05:09:17;8.50;88.46
68274;SHT30;55104;47.356;19.448;2024-03-17T05:12:18;8.46;88.54
68274;SHT30;55104;47.356;19.448;2024-03-17T05:15:19;8.46;87.99
68274;SHT30;55104;47.356;19.448;2024-03-17T05:18:21;8.45;86.90
68274;SHT30;55104;47.356;19.448;2024-03-17T05:21:23;8.47;85.66
68274;SHT30;55104;47.356;19.448;2024-03-17T05:24:24;8.43;84.71
68274;SHT30;55104;47.356;19.448;2024-03-17T05:27:25;8.49;83.49
68274;SHT30;55104;47.356;19.448;2024-03-17T05:30:27;8.43;82.41
68274;SHT30;55104;47.356;19.448;2024-03-17T05:33:28;8.39;82.10
68274;SHT30;55104;47.356;19.448;2024-03-17T05:36:29;8.40;81.37
68274;SHT30;55104;47.356;19.448;2024-03-17T05:39:33;8.45;81.11
68274;SHT30;55104;47.356;19.448;2024-03-17T05:42:34;8.40;81.38
68274;SHT30;55104;47.356;19.448;2024-03-17T05:45:36;8.36;81.13
68274;SHT30;55104;47.356;19.448;2024-03-17T05:48:39;8.39;81.11
68274;SHT30;55104;47.356;19.448;2024-03-17T05:51:40;8.37;81.54
68274;SHT30;55104;47.356;19.448;2024-03-17T05:54:42;8.33;81.80
68274;SHT30;55104;47.356;19.448;2024-03-17T05:57:43;8.30;82.46
68274;SHT30;55104;47.356;19.448;2024-03-17T06:00:44;8.36;82.01
68274;SHT30;55104;47.356;19.448;2024-03-17T06:03:46;8.45;80.94
68274;SHT30;55104;47.356;19.448;2024-03-17T06:06:47;8.49;79.84
68274;SHT30;55104;47.356;19.448;2024-03-17T06:09:49;8.47;79.87
68274;SHT30;55104;47.356;19.448;2024-03-17T06:12:51;8.46;79.92
68274;SHT30;55104;47.356;19.448;2024-03-17T06:15:53;8.45;79.47
68274;SHT30;55104;47.356;19.448;2024-03-17T06:18:54;8.45;79.34
68274;SHT30;55104;47.356;19.448;2024-03-17T06:21:55;8.46;77.77
68274;SHT30;55104;47.356;19.448;2024-03-17T06:24:58;8.37;78.39
68274;SHT30;55104;47.356;19.448;2024-03-17T06:28:00;8.37;78.17
68274;SHT30;55104;47.356;19.448;2024-03-17T06:31:03;8.42;76.95
68274;SHT30;55104;47.356;19.448;2024-03-17T06:34:08;8.40;77.43
68274;SHT30;55104;47.356;19.448;2024-03-17T06:37:09;8.43;77.33
68274;SHT30;55104;47.356;19.448;2024-03-17T06:40:14;8.39;76.57
68274;SHT30;55104;47.356;19.448;2024-03-17T06:43:16;8.39;76.96
68274;SHT30;55104;47.356;19.448;2024-03-17T06:46:17;8.39;77.42
68274;SHT30;55104;47.356;19.448;2024-03-17T06:49:19;8.49;77.16
68274;SHT30;55104;47.356;19.448;2024-03-17T06:52:21;8.46;76.85
68274;SHT30;55104;47.356;19.448;2024-03-17T06:55:22;8.50;77.05
68274;SHT30;55104;47.356;19.448;2024-03-17T06:58:26;8.53;76.33
68274;SHT30;55104;47.356;19.448;2024-03-17T07:01:29;8.59;77.33
68274;SHT30;55104;47.356;19.448;2024-03-17T07:04:30;8.68;77.22
68274;SHT30;55104;47.356;19.448;2024-03-17T07:07:32;8.75;75.06
68274;SHT30;55104;47.356;19.448;2024-03-17T07:10:33;8.75;75.10
68274;SHT30;55104;47.356;19.448;2024-03-17T07:13:38;8.89;75.52
68274;SHT30;55104;47.356;19.448;2024-03-17T07:16:40;8.92;74.80
68274;SHT30;55104;47.356;19.448;2024-03-17T07:19:41;9.07;75.09
68274;SHT30;55104;47.356;19.448;2024-03-17T07:22:42;9.15;74.42
68274;SHT30;55104;47.356;19.448;2024-03-17T07:25:52;9.25;73.55
68274;SHT30;55104;47.356;19.448;2024-03-17T07:28:53;9.22;73.50
68274;SHT30;55104;47.356;19.448;2024-03-17T07:31:54;9.36;73.97
68274;SHT30;55104;47.356;19.448;2024-03-17T07:34:55;9.40;73.20
68274;SHT30;55104;47.356;19.448;2024-03-17T07:37:57;9.43;73.11
68274;SHT30;55104;47.356;19.448;2024-03-17T07:41:09;9.54;73.07
68274;SHT30;55104;47.356;19.448;2024-03-17T07:44:10;9.51;72.58
68274;SHT30;55104;47.356;19.448;2024-03-17T07:47:12;9.61;72.68
68274;SHT30;55104;47.356;19.448;2024-03-17T07:50:13;9.70;72.60
68274;SHT30;55104;47.356;19.448;2024-03-17T07:53:15;9.69;72.29
68274;SHT30;55104;47.356;19.448;2024-03-17T07:56:16;9.78;73.03
68274;SHT30;55104;47.356;19.448;2024-03-17T07:59:18;9.90;72.08
68274;SHT30;55104;47.356;19.448;2024-03-17T08:02:19;9.85;71.74
68274;SHT30;55104;47.356;19.448;2024-03-17T08:05:20;9.98;72.23
68274;SHT30;55104;47.356;19.448;2024-03-17T08:08:21;10.16;72.12
68274;SHT30;55104;47.356;19.448;2024-03-17T08:11:23;10.32;70.65
68274;SHT30;55104;47.356;19.448;2024-03-17T08:14:25;10.35;70.10
68274;SHT30;55104;47.356;19.448;2024-03-17T08:17:27;10.46;70.25
68274;SHT30;55104;47.356;19.448;2024-03-17T08:20:28;10.49;68.00
68274;SHT30;55104;47.356;19.448;2024-03-17T08:23:30;10.49;67.72
68274;SHT30;55104;47.356;19.448;2024-03-17T08:26:31;10.63;67.49
68274;SHT30;55104;47.356;19.448;2024-03-17T08:29:32;10.70;67.43
68274;SHT30;55104;47.356;19.448;2024-03-17T08:32:36;10.71;67.18
68274;SHT30;55104;47.356;19.448;2024-03-17T08:35:38;10.77;67.24
68274;SHT30;55104;47.356;19.448;2024-03-17T08:38:39;10.87;66.28
68274;SHT30;55104;47.356;19.448;2024-03-17T08:41:40;11.03;66.11
68274;SHT30;55104;47.356;19.448;2024-03-17T08:44:41;11.14;65.91
68274;SHT30;55104;47.356;19.448;2024-03-17T08:47:42;11.23;65.48
68274;SHT30;55104;47.356;19.448;2024-03-17T08:50:50;11.35;63.98
68274;SHT30;55104;47.356;19.448;2024-03-17T08:53:52;11.33;63.81
68274;SHT30;55104;47.356;19.448;2024-03-17T08:56:53;11.39;62.99
68274;SHT30;55104;47.356;19.448;2024-03-17T08:59:55;11.47;62.19
68274;SHT30;55104;47.356;19.448;2024-03-17T09:02:56;11.56;62.40
68274;SHT30;55104;47.356;19.448;2024-03-17T09:05:57;11.56;63.23
68274;SHT30;55104;47.356;19.448;2024-03-17T09:08:59;11.55;62.77
68274;SHT30;55104;47.356;19.448;2024-03-17T09:12:00;11.66;62.35
68274;SHT30;55104;47.356;19.448;2024-03-17T09:15:01;11.73;60.53
68274;SHT30;55104;47.356;19.448;2024-03-17T09:18:03;11.70;60.06
68274;SHT30;55104;47.356;19.448;2024-03-17T09:21:07;11.83;61.19
68274;SHT30;55104;47.356;19.448;2024-03-17T09:24:09;11.97;60.57
68274;SHT30;55104;47.356;19.448;2024-03-17T09:27:10;11.83;58.88
68274;SHT30;55104;47.356;19.448;2024-03-17T09:30:12;11.87;58.42
68274;SHT30;55104;47.356;19.448;2024-03-17T09:33:13;12.07;59.91
68274;SHT30;55104;47.356;19.448;2024-03-17T09:36:15;12.31;57.49
68274;SHT30;55104;47.356;19.448;2024-03-17T09:39:16;12.28;58.29
68274;SHT30;55104;47.356;19.448;2024-03-17T09:42:20;12.53;58.43
68274;SHT30;55104;47.356;19.448;2024-03-17T09:45:24;12.66;56.05
68274;SHT30;55104;47.356;19.448;2024-03-17T09:48:27;12.50;55.83
68274;SHT30;55104;47.356;19.448;2024-03-17T09:51:29;12.57;55.42
68274;SHT30;55104;47.356;19.448;2024-03-17T09:54:30;12.59;56.28
68274;SHT30;55104;47.356;19.448;2024-03-17T09:57:33;12.52;57.47
68274;SHT30;55104;47.356;19.448;2024-03-17T10:00:35;12.67;58.37
68274;SHT30;55104;47.356;19.448;2024-03-17T10:03:53;12.57;57.93
68274;SHT30;55104;47.356;19.448;2024-03-17T10:07:00;12.53;57.02
68274;SHT30;55104;47.356;19.448;2024-03-17T10:10:11;12.43;57.33
68274;SHT30;55104;47.356;19.448;2024-03-17T10:13:15;12.64;58.51
68274;SHT30;55104;47.356;19.448;2024-03-17T10:16:22;12.64;58.28
68274;SHT30;55104;47.356;19.448;2024-03-17T10:19:25;12.55;58.57
68274;SHT30;55104;47.356;19.448;2024-03-17T10:22:27;12.66;59.30
68274;SHT30;55104;47.356;19.448;2024-03-17T10:25:33;12.56;57.29
68274;SHT30;55104;47.356;19.448;2024-03-17T10:28:35;12.64;57.50
68274;SHT30;55104;47.356;19.448;2024-03-17T10:31:40;12.75;56.93
68274;SHT30;55104;47.356;19.448;2024-03-17T10:34:41;12.72;56.97
68274;SHT30;55104;47.356;19.448;2024-03-17T10:37:56;12.87;56.61
68274;SHT30;55104;47.356;19.448;2024-03-17T10:40:58;12.57;54.55
68274;SHT30;55104;47.356;19.448;2024-03-17T10:43:59;12.72;54.99
68274;SHT30;55104;47.356;19.448;2024-03-17T10:47:02;12.98;53.91
68274;SHT30;55104;47.356;19.448;2024-03-17T10:50:05;13.19;54.06
68274;SHT30;55104;47.356;19.448;2024-03-17T10:53:12;13.25;52.53
68274;SHT30;55104;47.356;19.448;2024-03-17T10:56:16;13.15;52.12
68274;SHT30;55104;47.356;19.448;2024-03-17T10:59:25;13.14;52.84
68274;SHT30;55104;47.356;19.448;2024-03-17T11:02:29;13.05;54.15
68274;SHT30;55104;47.356;19.448;2024-03-17T11:05:34;13.22;52.56
68274;SHT30;55104;47.356;19.448;2024-03-17T11:08:36;13.38;51.75
68274;SHT30;55104;47.356;19.448;2024-03-17T11:11:38;13.26;50.76
68274;SHT30;55104;47.356;19.448;2024-03-17T11:14:40;13.26;51.93
68274;SHT30;55104;47.356;19.448;2024-03-17T11:17:42;13.35;51.53
68274;SHT30;55104;47.356;19.448;2024-03-17T11:24:20;13.69;49.65
68274;SHT30;55104;47.356;19.448;2024-03-17T11:27:40;13.90;47.01
68274;SHT30;55104;47.356;19.448;2024-03-17T11:33:52;13.52;44.47
68274;SHT30;55104;47.356;19.448;2024-03-17T11:36:55;13.69;45.75
68274;SHT30;55104;47.356;19.448;2024-03-17T11:39:57;13.91;44.10
68274;SHT30;55104;47.356;19.448;2024-03-17T11:43:02;14.04;47.54
68274;SHT30;55104;47.356;19.448;2024-03-17T11:46:10;14.11;48.75
68274;SHT30;55104;47.356;19.448;2024-03-17T11:49:31;14.21;46.43
68274;SHT30;55104;47.356;19.448;2024-03-17T11:52:34;14.06;45.04
68274;SHT30;55104;47.356;19.448;2024-03-17T11:55:35;13.83;44.02
68274;SHT30;55104;47.356;19.448;2024-03-17T11:58:36;13.80;44.36
68274;SHT30;55104;47.356;19.448;2024-03-17T12:01:42;13.93;44.80
68274;SHT30;55104;47.356;19.448;2024-03-17T12:04:44;13.93;45.18
68274;SHT30;55104;47.356;19.448;2024-03-17T12:07:45;13.83;45.98
68274;SHT30;55104;47.356;19.448;2024-03-17T12:10:48;13.79;45.98
68274;SHT30;55104;47.356;19.448;2024-03-17T12:13:49;13.81;45.80
68274;SHT30;55104;47.356;19.448;2024-03-17T12:16:55;13.96;46.36
68274;SHT30;55104;47.356;19.448;2024-03-17T12:19:57;13.84;46.95
68274;SHT30;55104;47.356;19.448;2024-03-17T12:22:59;13.73;49.38
68274;SHT30;55104;47.356;19.448;2024-03-17T12:26:00;13.83;50.32
68274;SHT30;55104;47.356;19.448;2024-03-17T12:29:01;14.06;48.54
68274;SHT30;55104;47.356;19.448;2024-03-17T12:32:04;14.01;46.79
68274;SHT30;55104;47.356;19.448;2024-03-17T12:35:14;13.80;47.38
68274;SHT30;55104;47.356;19.448;2024-03-17T12:38:23;14.00;47.61
68274;SHT30;55104;47.356;19.448;2024-03-17T12:41:27;13.70;44.96
68274;SHT30;55104;47.356;19.448;2024-03-17T12:44:32;13.83;47.56
68274;SHT30;55104;47.356;19.448;2024-03-17T12:47:33;14.15;46.63
68274;SHT30;55104;47.356;19.448;2024-03-17T12:50:36;14.14;47.97
68274;SHT30;55104;47.356;19.448;2024-03-17T12:53:42;13.87;47.65
68274;SHT30;55104;47.356;19.448;2024-03-17T12:56:43;13.93;48.79
68274;SHT30;55104;47.356;19.448;2024-03-17T13:00:16;13.93;48.02
68274;SHT30;55104;47.356;19.448;2024-03-17T13:03:35;13.81;48.86
68274;SHT30;55104;47.356;19.448;2024-03-17T13:06:37;13.91;48.20
68274;SHT30;55104;47.356;19.448;2024-03-17T13:09:39;14.03;45.56
68274;SHT30;55104;47.356;19.448;2024-03-17T13:12:41;13.84;44.16
68274;SHT30;55104;47.356;19.448;2024-03-17T13:15:43;13.93;45.72
68274;SHT30;55104;47.356;19.448;2024-03-17T13:18:44;13.98;47.10
68274;SHT30;55104;47.356;19.448;2024-03-17T13:21:46;13.80;46.94
68274;SHT30;55104;47.356;19.448;2024-03-17T13:24:48;14.00;45.72
68274;SHT30;55104;47.356;19.448;2024-03-17T13:27:50;13.79;44.95
68274;SHT30;55104;47.356;19.448;2024-03-17T13:30:51;14.01;44.58
68274;SHT30;55104;47.356;19.448;2024-03-17T13:33:54;13.89;44.93
68274;SHT30;55104;47.356;19.448;2024-03-17T13:36:55;13.83;43.95
68274;SHT30;55104;47.356;19.448;2024-03-17T13:39:56;13.84;43.37
68274;SHT30;55104;47.356;19.448;2024-03-17T13:42:58;13.93;42.87
68274;SHT30;55104;47.356;19.448;2024-03-17T13:45:59;14.06;42.27
68274;SHT30;55104;47.356;19.448;2024-03-17T13:49:07;13.76;42.17
68274;SHT30;55104;47.356;19.448;2024-03-17T13:52:09;13.70;43.61
68274;SHT30;55104;47.356;19.448;2024-03-17T13:55:15;13.69;43.88
68274;SHT30;55104;47.356;19.448;2024-03-17T13:58:17;13.80;41.87
68274;SHT30;55104;47.356;19.448;2024-03-17T14:01:19;13.74;42.73
68274;SHT30;55104;47.356;19.448;2024-03-17T14:04:21;13.71;41.38
68274;SHT30;55104;47.356;19.448;2024-03-17T14:07:22;13.80;39.91
68274;SHT30;55104;47.356;19.448;2024-03-17T14:10:24;13.67;39.48
68274;SHT30;55104;47.356;19.448;2024-03-17T14:13:26;13.63;41.44
68274;SHT30;55104;47.356;19.448;2024-03-17T14:16:29;13.55;41.88
68274;SHT30;55104;47.356;19.448;2024-03-17T14:19:32;13.69;41.73
68274;SHT30;55104;47.356;19.448;2024-03-17T14:22:37;13.71;41.09
68274;SHT30;55104;47.356;19.448;2024-03-17T14:25:39;13.62;40.28
68274;SHT30;55104;47.356;19.448;2024-03-17T14:28:40;13.49;40.51
68274;SHT30;55104;47.356;19.448;2024-03-17T14:31:42;13.35;41.44
68274;SHT30;55104;47.356;19.448;2024-03-17T14:34:46;13.28;42.55
68274;SHT30;55104;47.356;19.448;2024-03-17T14:37:48;13.35;41.85
68274;SHT30;55104;47.356;19.448;2024-03-17T14:40:52;13.39;42.32
68274;SHT30;55104;47.356;19.448;2024-03-17T14:43:55;13.31;43.03
68274;SHT30;55104;47.356;19.448;2024-03-17T14:46:56;13.31;43.33
68274;SHT30;55104;47.356;19.448;2024-03-17T14:49:57;13.16;44.00
68274;SHT30;55104;47.356;19.448;2024-03-17T14:52:59;13.10;43.96
68274;SHT30;55104;47.356;19.448;2024-03-17T14:56:00;13.05;43.38
68274;SHT30;55104;47.356;19.448;2024-03-17T14:59:01;13.04;43.43
68274;SHT30;55104;47.356;19.448;2024-03-17T15:02:03;12.93;42.58
68274;SHT30;55104;47.356;19.448;2024-03-17T15:05:04;12.94;43.15
68274;SHT30;55104;47.356;19.448;2024-03-17T15:08:07;12.88;43.82
68274;SHT30;55104;47.356;19.448;2024-03-17T15:11:10;12.61;44.19
68274;SHT30;55104;47.356;19.448;2024-03-17T15:14:12;12.52;44.71
68274;SHT30;55104;47.356;19.448;2024-03-17T15:17:13;12.39;45.89
68274;SHT30;55104;47.356;19.448;2024-03-17T15:20:17;12.22;46.32
68274;SHT30;55104;47.356;19.448;2024-03-17T15:23:19;12.13;48.06
68274;SHT30;55104;47.356;19.448;2024-03-17T15:26:21;12.11;47.57
68274;SHT30;55104;47.356;19.448;2024-03-17T15:29:23;11.94;47.47
68274;SHT30;55104;47.356;19.448;2024-03-17T15:32:24;11.93;49.15
68274;SHT30;55104;47.356;19.448;2024-03-17T15:35:25;11.78;49.69
68274;SHT30;55104;47.356;19.448;2024-03-17T15:38:31;11.70;50.21
68274;SHT30;55104;47.356;19.448;2024-03-17T15:41:36;11.60;50.37
68274;SHT30;55104;47.356;19.448;2024-03-17T15:44:37;11.43;50.56
68274;SHT30;55104;47.356;19.448;2024-03-17T15:47:39;11.35;50.68
68274;SHT30;55104;47.356;19.448;2024-03-17T15:50:40;11.26;52.03
68274;SHT30;55104;47.356;19.448;2024-03-17T15:53:47;11.18;52.45
68274;SHT30;55104;47.356;19.448;2024-03-17T15:56:51;11.18;52.61
68274;SHT30;55104;47.356;19.448;2024-03-17T15:59:52;11.01;53.26
68274;SHT30;55104;47.356;19.448;2024-03-17T16:02:56;10.98;53.06
68274;SHT30;55104;47.356;19.448;2024-03-17T16:05:59;10.90;54.63
68274;SHT30;55104;47.356;19.448;2024-03-17T16:09:02;10.83;53.39
68274;SHT30;55104;47.356;19.448;2024-03-17T16:12:04;10.77;53.66
68274;SHT30;55104;47.356;19.448;2024-03-17T16:15:06;10.60;54.61
68274;SHT30;55104;47.356;19.448;2024-03-17T16:18:09;10.59;54.44
68274;SHT30;55104;47.356;19.448;2024-03-17T16:21:14;10.46;55.09
68274;SHT30;55104;47.356;19.448;2024-03-17T16:24:16;10.32;55.03
68274;SHT30;55104;47.356;19.448;2024-03-17T16:27:17;10.23;54.91
68274;SHT30;55104;47.356;19.448;2024-03-17T16:30:18;10.13;55.37
68274;SHT30;55104;47.356;19.448;2024-03-17T16:33:20;10.04;56.14
68274;SHT30;55104;47.356;19.448;2024-03-17T16:36:21;9.95;56.23
68274;SHT30;55104;47.356;19.448;2024-03-17T16:39:23;9.80;56.69
68274;SHT30;55104;47.356;19.448;2024-03-17T16:42:26;9.77;56.30
68274;SHT30;55104;47.356;19.448;2024-03-17T16:45:27;9.76;55.37
68274;SHT30;55104;47.356;19.448;2024-03-17T16:48:29;9.64;56.09
68274;SHT30;55104;47.356;19.448;2024-03-17T16:51:30;9.50;56.51
68274;SHT30;55104;47.356;19.448;2024-03-17T16:54:31;9.38;56.73
68274;SHT30;55104;47.356;19.448;2024-03-17T16:57:37;9.25;57.14
68274;SHT30;55104;47.356;19.448;2024-03-17T17:00:39;9.11;58.14
68274;SHT30;55104;47.356;19.448;2024-03-17T17:03:41;8.98;59.10
68274;SHT30;55104;47.356;19.448;2024-03-17T17:06:42;8.92;59.22
68274;SHT30;55104;47.356;19.448;2024-03-17T17:09:43;8.74;59.79
68274;SHT30;55104;47.356;19.448;2024-03-17T17:12:45;8.66;60.80
68274;SHT30;55104;47.356;19.448;2024-03-17T17:15:46;8.50;61.92
68274;SHT30;55104;47.356;19.448;2024-03-17T17:21:58;8.37;62.47
68274;SHT30;55104;47.356;19.448;2024-03-17T17:25:02;8.25;62.76
68274;SHT30;55104;47.356;19.448;2024-03-17T17:28:06;8.16;63.36
68274;SHT30;55104;47.356;19.448;2024-03-17T17:31:07;8.18;63.52
68274;SHT30;55104;47.356;19.448;2024-03-17T17:34:10;8.11;63.48
68274;SHT30;55104;47.356;19.448;2024-03-17T17:37:12;8.15;63.28
68274;SHT30;55104;47.356;19.448;2024-03-17T17:40:13;8.06;62.84
68274;SHT30;55104;47.356;19.448;2024-03-17T17:43:14;7.99;63.18
68274;SHT30;55104;47.356;19.448;2024-03-17T17:46:18;8.03;63.05
68274;SHT30;55104;47.356;19.448;2024-03-17T17:49:21;7.99;63.13
68274;SHT30;55104;47.356;19.448;2024-03-17T17:52:23;7.91;63.54
68274;SHT30;55104;47.356;19.448;2024-03-17T17:55:28;7.87;63.26
68274;SHT30;55104;47.356;19.448;2024-03-17T17:58:29;7.71;63.72
68274;SHT30;55104;47.356;19.448;2024-03-17T18:01:30;7.73;63.60
68274;SHT30;55104;47.356;19.448;2024-03-17T18:04:32;7.73;63.02
68274;SHT30;55104;47.356;19.448;2024-03-17T18:07:33;7.73;62.98
68274;SHT30;55104;47.356;19.448;2024-03-17T18:19:20;7.27;64.21
68274;SHT30;55104;47.356;19.448;2024-03-17T18:22:21;7.19;65.03
68274;SHT30;55104;47.356;19.448;2024-03-17T18:25:23;7.07;65.81
68274;SHT30;55104;47.356;19.448;2024-03-17T18:28:25;6.99;65.65
68274;SHT30;55104;47.356;19.448;2024-03-17T18:31:28;6.95;65.73
68274;SHT30;55104;47.356;19.448;2024-03-17T18:34:30;6.92;66.13
68274;SHT30;55104;47.356;19.448;2024-03-17T18:37:31;6.88;65.67
68274;SHT30;55104;47.356;19.448;2024-03-17T18:40:32;7.04;64.94
68274;SHT30;55104;47.356;19.448;2024-03-17T18:43:35;6.99;65.04
68274;SHT30;55104;47.356;19.448;2024-03-17T18:46:36;7.01;65.31
68274;SHT30;55104;47.356;19.448;2024-03-17T18:49:38;7.18;65.00
68274;SHT30;55104;47.356;19.448;2024-03-17T18:52:39;7.16;64.33
68274;SHT30;55104;47.356;19.448;2024-03-17T18:55:42;7.22;64.42
68274;SHT30;55104;47.356;19.448;2024-03-17T18:58:43;7.12;64.39
68274;SHT30;55104;47.356;19.448;2024-03-17T19:01:45;7.04;64.54
68274;SHT30;55104;47.356;19.448;2024-03-17T19:04:48;7.05;64.73
68274;SHT30;55104;47.356;19.448;2024-03-17T19:07:51;6.90;65.12
68274;SHT30;55104;47.356;19.448;2024-03-17T19:10:53;6.77;65.70
68274;SHT30;55104;47.356;19.448;2024-03-17T19:13:55;6.76;66.04
68274;SHT30;55104;47.356;19.448;2024-03-17T19:16:56;6.79;66.01
68274;SHT30;55104;47.356;19.448;2024-03-17T19:19:57;6.92;65.18
68274;SHT30;55104;47.356;19.448;2024-03-17T19:22:59;6.90;65.89